Prague, Arkansas
Current Conditions -  °F | °C
As of 10:53 AM on Tuesday 21 Oct 2014 (Local Time) from KPBF Reporting Station
Clear Clear  
Wind Chill: 68°   Ceiling: Unl
Heat Index: 68°   Visibility: 9mi
Dew Point: 59°   Wind: 5mph
Humidity: 73%   Direction: 40°NE
Pressure: 30.12"   Gusts: NA
Location:  34.3151°N, 92.3357°W
Report Text: KPBF 211553Z AUTO 04004KT 9SM CLR 20/15 A3012 RMK AO2 SLP197 T02000150
Loading
Personal Weather Stations






























Interactive Weather Map
Tropical Storm Tracking
New forecast layout! Learn more

10-Day Weather Forecast

Advertisements
Track Severe Weather on mobile